sensor_id;sensor_type;location;lat;lon;timestamp;pressure;altitude;pressure_sealevel;temperature;humidity
60345;BME280;46188;52.324;8.032;2023-05-20T00:01:00;101345.53;;;12.55;87.39
60345;BME280;46188;52.324;8.032;2023-05-20T00:03:26;101343.75;;;12.55;87.52
60345;BME280;46188;52.324;8.032;2023-05-20T00:05:51;101348.13;;;12.52;87.52
60345;BME280;46188;52.324;8.032;2023-05-20T00:08:17;101347.19;;;12.50;88.07
60345;BME280;46188;52.324;8.032;2023-05-20T00:10:43;101338.34;;;12.49;88.27
60345;BME280;46188;52.324;8.032;2023-05-20T00:13:08;101340.09;;;12.47;88.17
60345;BME280;46188;52.324;8.032;2023-05-20T00:15:33;101339.97;;;12.41;88.82
60345;BME280;46188;52.324;8.032;2023-05-20T00:18:00;101342.56;;;12.36;89.82
60345;BME280;46188;52.324;8.032;2023-05-20T00:20:26;101342.63;;;12.41;89.33
60345;BME280;46188;52.324;8.032;2023-05-20T00:22:51;101341.78;;;12.42;89.74
60345;BME280;46188;52.324;8.032;2023-05-20T00:25:17;101343.41;;;12.35;89.61
60345;BME280;46188;52.324;8.032;2023-05-20T00:27:42;101342.50;;;12.33;90.01
60345;BME280;46188;52.324;8.032;2023-05-20T00:30:08;101339.84;;;12.32;90.46
60345;BME280;46188;52.324;8.032;2023-05-20T00:32:33;101343.34;;;12.32;90.17
60345;BME280;46188;52.324;8.032;2023-05-20T00:34:59;101345.94;;;12.29;90.63
60345;BME280;46188;52.324;8.032;2023-05-20T00:37:25;101358.25;;;12.27;90.74
60345;BME280;46188;52.324;8.032;2023-05-20T00:39:50;101355.50;;;12.23;91.47
60345;BME280;46188;52.324;8.032;2023-05-20T00:42:26;101345.81;;;12.22;91.93
60345;BME280;46188;52.324;8.032;2023-05-20T00:44:52;101343.19;;;12.22;91.65
60345;BME280;46188;52.324;8.032;2023-05-20T00:47:19;101340.38;;;12.14;92.13
60345;BME280;46188;52.324;8.032;2023-05-20T00:49:46;101339.44;;;12.10;92.94
60345;BME280;46188;52.324;8.032;2023-05-20T00:52:13;101336.88;;;12.13;92.80
60345;BME280;46188;52.324;8.032;2023-05-20T00:54:39;101340.34;;;12.12;93.04
60345;BME280;46188;52.324;8.032;2023-05-20T00:57:05;101339.38;;;12.07;93.16
60345;BME280;46188;52.324;8.032;2023-05-20T00:59:32;101337.50;;;12.00;93.36
60345;BME280;46188;52.324;8.032;2023-05-20T01:01:58;101336.56;;;11.98;93.72
60345;BME280;46188;52.324;8.032;2023-05-20T01:04:23;101343.53;;;11.94;94.03
60345;BME280;46188;52.324;8.032;2023-05-20T01:06:49;101334.75;;;11.95;94.35
60345;BME280;46188;52.324;8.032;2023-05-20T01:09:14;101329.47;;;11.95;94.61
60345;BME280;46188;52.324;8.032;2023-05-20T01:15:08;101341.69;;;11.90;95.04
60345;BME280;46188;52.324;8.032;2023-05-20T01:17:37;101325.72;;;11.86;94.98
60345;BME280;46188;52.324;8.032;2023-05-20T01:20:03;101330.03;;;11.80;95.81
60345;BME280;46188;52.324;8.032;2023-05-20T01:22:31;101332.63;;;11.77;96.15
60345;BME280;46188;52.324;8.032;2023-05-20T01:24:56;101330.88;;;11.79;96.21
60345;BME280;46188;52.324;8.032;2023-05-20T01:27:22;101336.16;;;11.79;96.18
60345;BME280;46188;52.324;8.032;2023-05-20T01:29:49;101341.44;;;11.79;96.20
60345;BME280;46188;52.324;8.032;2023-05-20T01:32:20;101342.34;;;11.78;96.73
60345;BME280;46188;52.324;8.032;2023-05-20T01:34:49;101341.44;;;11.79;96.71
60345;BME280;46188;52.324;8.032;2023-05-20T01:37:16;101336.06;;;11.75;96.37
60345;BME280;46188;52.324;8.032;2023-05-20T01:39:41;101337.75;;;11.71;97.33
60345;BME280;46188;52.324;8.032;2023-05-20T01:42:08;101339.38;;;11.64;97.45
60345;BME280;46188;52.324;8.032;2023-05-20T01:44:34;101339.38;;;11.64;97.85
60345;BME280;46188;52.324;8.032;2023-05-20T01:47:00;101347.22;;;11.60;98.09
60345;BME280;46188;52.324;8.032;2023-05-20T01:49:26;101341.94;;;11.60;98.73
60345;BME280;46188;52.324;8.032;2023-05-20T01:51:51;101329.59;;;11.59;98.43
60345;BME280;46188;52.324;8.032;2023-05-20T01:54:16;101324.25;;;11.56;98.34
60345;BME280;46188;52.324;8.032;2023-05-20T01:56:41;101325.94;;;11.52;98.59
60345;BME280;46188;52.324;8.032;2023-05-20T01:59:07;101317.16;;;11.53;99.10
60345;BME280;46188;52.324;8.032;2023-05-20T02:01:32;101322.34;;;11.49;99.32
60345;BME280;46188;52.324;8.032;2023-05-20T02:03:57;101326.69;;;11.47;99.66
60345;BME280;46188;52.324;8.032;2023-05-20T02:06:23;101319.59;;;11.42;100.00
60345;BME280;46188;52.324;8.032;2023-05-20T02:08:48;101319.63;;;11.44;99.77
60345;BME280;46188;52.324;8.032;2023-05-20T02:11:13;101326.59;;;11.40;99.97
60345;BME280;46188;52.324;8.032;2023-05-20T02:13:38;101328.13;;;11.31;100.00
60345;BME280;46188;52.324;8.032;2023-05-20T02:16:04;101330.75;;;11.29;100.00
60345;BME280;46188;52.324;8.032;2023-05-20T02:18:29;101332.50;;;11.30;100.00
60345;BME280;46188;52.324;8.032;2023-05-20T02:21:01;101335.13;;;11.30;100.00
60345;BME280;46188;52.324;8.032;2023-05-20T02:23:26;101329.00;;;11.31;100.00
60345;BME280;46188;52.324;8.032;2023-05-20T02:25:51;101335.13;;;11.30;100.00
60345;BME280;46188;52.324;8.032;2023-05-20T02:28:16;101329.00;;;11.31;100.00
60345;BME280;46188;52.324;8.032;2023-05-20T02:30:42;101327.19;;;11.29;100.00
60345;BME280;46188;52.324;8.032;2023-05-20T02:33:07;101324.53;;;11.27;100.00
60345;BME280;46188;52.324;8.032;2023-05-20T02:35:33;101315.63;;;11.23;100.00
60345;BME280;46188;52.324;8.032;2023-05-20T02:37:59;101322.63;;;11.21;100.00
60345;BME280;46188;52.324;8.032;2023-05-20T02:40:25;101322.50;;;11.15;100.00
60345;BME280;46188;52.324;8.032;2023-05-20T02:42:50;101323.34;;;11.13;100.00
60345;BME280;46188;52.324;8.032;2023-05-20T02:45:15;101318.91;;;11.12;100.00
60345;BME280;46188;52.324;8.032;2023-05-20T02:47:40;101318.06;;;11.13;100.00
60345;BME280;46188;52.324;8.032;2023-05-20T02:50:06;101318.94;;;11.13;100.00
60345;BME280;46188;52.324;8.032;2023-05-20T02:52:31;101319.81;;;11.12;100.00
60345;BME280;46188;52.324;8.032;2023-05-20T02:54:57;101315.34;;;11.10;100.00
60345;BME280;46188;52.324;8.032;2023-05-20T02:57:22;101321.47;;;11.08;100.00
60345;BME280;46188;52.324;8.032;2023-05-20T02:59:48;101320.50;;;11.05;100.00
60345;BME280;46188;52.324;8.032;2023-05-20T03:02:13;101316.03;;;11.01;100.00
60345;BME280;46188;52.324;8.032;2023-05-20T03:04:38;101313.41;;;11.01;100.00
60345;BME280;46188;52.324;8.032;2023-05-20T03:07:05;101321.28;;;10.99;100.00
60345;BME280;46188;52.324;8.032;2023-05-20T03:09:31;101325.63;;;10.97;100.00
60345;BME280;46188;52.324;8.032;2023-05-20T03:11:57;101315.94;;;10.96;100.00
60345;BME280;46188;52.324;8.032;2023-05-20T03:14:22;101323.91;;;10.99;100.00
60345;BME280;46188;52.324;8.032;2023-05-20T03:16:47;101323.81;;;10.95;100.00
60345;BME280;46188;52.324;8.032;2023-05-20T03:19:12;101314.09;;;10.94;100.00
60345;BME280;46188;52.324;8.032;2023-05-20T03:21:38;101320.25;;;10.93;100.00
60345;BME280;46188;52.324;8.032;2023-05-20T03:24:03;101323.75;;;10.93;100.00
60345;BME280;46188;52.324;8.032;2023-05-20T03:26:28;101324.56;;;10.90;100.00
60345;BME280;46188;52.324;8.032;2023-05-20T03:28:54;101323.69;;;10.90;100.00
60345;BME280;46188;52.324;8.032;2023-05-20T03:31:19;101317.56;;;10.91;100.00
60345;BME280;46188;52.324;8.032;2023-05-20T03:33:45;101317.56;;;10.91;100.00
60345;BME280;46188;52.324;8.032;2023-05-20T03:36:10;101321.84;;;10.86;100.00
60345;BME280;46188;52.324;8.032;2023-05-20T03:38:35;101317.50;;;10.88;100.00
60345;BME280;46188;52.324;8.032;2023-05-20T03:41:01;101315.69;;;10.87;100.00
60345;BME280;46188;52.324;8.032;2023-05-20T03:43:26;101319.13;;;10.83;100.00
60345;BME280;46188;52.324;8.032;2023-05-20T03:45:52;101318.25;;;10.84;100.00
60345;BME280;46188;52.324;8.032;2023-05-20T03:48:18;101318.22;;;10.81;100.00
60345;BME280;46188;52.324;8.032;2023-05-20T03:50:44;101319.91;;;10.79;100.00
60345;BME280;46188;52.324;8.032;2023-05-20T03:53:10;101324.34;;;10.80;100.00
60345;BME280;46188;52.324;8.032;2023-05-20T03:55:35;101313.00;;;10.84;100.00
60345;BME280;46188;52.324;8.032;2023-05-20T03:58:00;101320.09;;;10.86;99.90
60345;BME280;46188;52.324;8.032;2023-05-20T04:00:25;101327.28;;;10.94;99.32
60345;BME280;46188;52.324;8.032;2023-05-20T04:02:51;101322.97;;;10.96;98.70
60345;BME280;46188;52.324;8.032;2023-05-20T04:05:17;101325.59;;;10.96;98.48
60345;BME280;46188;52.324;8.032;2023-05-20T04:07:43;101325.56;;;10.94;98.23
60345;BME280;46188;52.324;8.032;2023-05-20T04:10:09;101326.56;;;10.99;97.81
60345;BME280;46188;52.324;8.032;2023-05-20T04:12:34;101323.94;;;11.01;97.84
60345;BME280;46188;52.324;8.032;2023-05-20T04:15:02;101325.72;;;11.02;97.17
60345;BME280;46188;52.324;8.032;2023-05-20T04:17:28;101328.41;;;11.03;97.14
60345;BME280;46188;52.324;8.032;2023-05-20T04:19:57;101325.91;;;11.10;96.42
60345;BME280;46188;52.324;8.032;2023-05-20T04:22:24;101322.44;;;11.12;96.41
60345;BME280;46188;52.324;8.032;2023-05-20T04:24:49;101316.28;;;11.13;95.20
60345;BME280;46188;52.324;8.032;2023-05-20T04:27:14;101317.06;;;11.07;95.11
60345;BME280;46188;52.324;8.032;2023-05-20T04:29:40;101320.72;;;11.14;94.96
60345;BME280;46188;52.324;8.032;2023-05-20T04:32:09;101316.41;;;11.18;94.47
60345;BME280;46188;52.324;8.032;2023-05-20T04:34:35;101319.09;;;11.19;93.58
60345;BME280;46188;52.324;8.032;2023-05-20T04:37:01;101323.38;;;11.14;93.74
60345;BME280;46188;52.324;8.032;2023-05-20T04:39:26;101325.09;;;11.14;93.66
60345;BME280;46188;52.324;8.032;2023-05-20T04:41:51;101320.72;;;11.14;93.55
60345;BME280;46188;52.324;8.032;2023-05-20T04:44:19;101322.44;;;11.12;92.50
60345;BME280;46188;52.324;8.032;2023-05-20T04:46:44;101333.06;;;11.15;92.21
60345;BME280;46188;52.324;8.032;2023-05-20T04:49:10;101333.06;;;11.15;91.80
60345;BME280;46188;52.324;8.032;2023-05-20T04:51:35;101328.63;;;11.13;91.41
60345;BME280;46188;52.324;8.032;2023-05-20T04:54:00;101335.75;;;11.18;90.74
60345;BME280;46188;52.324;8.032;2023-05-20T04:56:26;101321.69;;;11.18;90.63
60345;BME280;46188;52.324;8.032;2023-05-20T04:58:51;101338.28;;;11.12;90.19
60345;BME280;46188;52.324;8.032;2023-05-20T05:01:16;101331.28;;;11.14;89.23
60345;BME280;46188;52.324;8.032;2023-05-20T05:03:42;101331.41;;;11.19;89.20
60345;BME280;46188;52.324;8.032;2023-05-20T05:06:07;101331.28;;;11.14;88.30
60345;BME280;46188;52.324;8.032;2023-05-20T05:08:32;101334.03;;;11.19;88.09
60345;BME280;46188;52.324;8.032;2023-05-20T05:10:57;101331.38;;;11.17;87.61
60345;BME280;46188;52.324;8.032;2023-05-20T05:13:22;101336.59;;;11.16;87.16
60345;BME280;46188;52.324;8.032;2023-05-20T05:15:48;101331.47;;;11.23;87.11
60345;BME280;46188;52.324;8.032;2023-05-20T05:18:21;101326.16;;;11.22;86.95
60345;BME280;46188;52.324;8.032;2023-05-20T05:20:46;101334.16;;;11.25;87.15
60345;BME280;46188;52.324;8.032;2023-05-20T05:23:11;101334.38;;;11.34;86.17
60345;BME280;46188;52.324;8.032;2023-05-20T05:25:37;101331.69;;;11.33;86.23
60345;BME280;46188;52.324;8.032;2023-05-20T05:28:02;101330.78;;;11.31;86.47
60345;BME280;46188;52.324;8.032;2023-05-20T05:30:27;101330.06;;;11.39;85.77
60345;BME280;46188;52.324;8.032;2023-05-20T05:32:53;101329.34;;;11.47;85.66
60345;BME280;46188;52.324;8.032;2023-05-20T05:35:18;101311.72;;;11.45;85.15
60345;BME280;46188;52.324;8.032;2023-05-20T05:37:43;101308.38;;;11.54;85.26
60345;BME280;46188;52.324;8.032;2023-05-20T05:40:09;101315.41;;;11.54;84.30
60345;BME280;46188;52.324;8.032;2023-05-20T05:42:34;101308.50;;;11.60;84.07
60345;BME280;46188;52.324;8.032;2023-05-20T05:45:00;101306.03;;;11.70;83.61
60345;BME280;46188;52.324;8.032;2023-05-20T05:47:25;101312.16;;;11.67;83.54
60345;BME280;46188;52.324;8.032;2023-05-20T05:49:56;101302.47;;;11.68;83.30
60345;BME280;46188;52.324;8.032;2023-05-20T05:52:21;101307.00;;;11.75;82.99
60345;BME280;46188;52.324;8.032;2023-05-20T05:54:46;101314.19;;;11.80;82.55
60345;BME280;46188;52.324;8.032;2023-05-20T05:57:11;101307.22;;;11.86;81.83
60345;BME280;46188;52.324;8.032;2023-05-20T05:59:37;101313.38;;;11.85;81.86
60345;BME280;46188;52.324;8.032;2023-05-20T06:02:02;101312.56;;;11.87;81.30
60345;BME280;46188;52.324;8.032;2023-05-20T06:04:27;101312.72;;;11.93;80.96
60345;BME280;46188;52.324;8.032;2023-05-20T06:06:53;101317.34;;;12.05;80.70
60345;BME280;46188;52.324;8.032;2023-05-20T06:09:18;101312.78;;;11.98;80.78
60345;BME280;46188;52.324;8.032;2023-05-20T06:11:43;101313.69;;;11.98;80.82
60345;BME280;46188;52.324;8.032;2023-05-20T06:14:08;101318.13;;;12.01;80.20
60345;BME280;46188;52.324;8.032;2023-05-20T06:16:34;101317.97;;;11.92;79.80
60345;BME280;46188;52.324;8.032;2023-05-20T06:18:59;101307.47;;;11.98;79.84
60345;BME280;46188;52.324;8.032;2023-05-20T06:21:24;101306.72;;;12.04;79.92
60345;BME280;46188;52.324;8.032;2023-05-20T06:23:49;101302.38;;;12.07;79.85
60345;BME280;46188;52.324;8.032;2023-05-20T06:26:15;101302.44;;;12.10;79.71
60345;BME280;46188;52.324;8.032;2023-05-20T06:28:40;101292.91;;;12.18;79.61
60345;BME280;46188;52.324;8.032;2023-05-20T06:31:05;101297.41;;;12.26;79.63
60345;BME280;46188;52.324;8.032;2023-05-20T06:33:31;101293.31;;;12.43;79.20
60345;BME280;46188;52.324;8.032;2023-05-20T06:35:57;101292.59;;;12.53;78.88
60345;BME280;46188;52.324;8.032;2023-05-20T06:38:22;101291.78;;;12.59;78.98
60345;BME280;46188;52.324;8.032;2023-05-20T06:40:48;101299.88;;;12.68;78.52
60345;BME280;46188;52.324;8.032;2023-05-20T06:43:14;101294.00;;;12.88;78.30
60345;BME280;46188;52.324;8.032;2023-05-20T06:45:39;101293.41;;;13.09;77.89
60345;BME280;46188;52.324;8.032;2023-05-20T06:48:05;101283.09;;;13.27;77.33
60345;BME280;46188;52.324;8.032;2023-05-20T06:50:30;101284.22;;;13.46;77.20
60345;BME280;46188;52.324;8.032;2023-05-20T06:52:55;101278.13;;;13.54;76.28
60345;BME280;46188;52.324;8.032;2023-05-20T06:55:20;101283.47;;;13.57;76.35
60345;BME280;46188;52.324;8.032;2023-05-20T06:57:46;101271.31;;;13.76;75.54
60345;BME280;46188;52.324;8.032;2023-05-20T07:00:11;101263.53;;;13.93;75.34
60345;BME280;46188;52.324;8.032;2023-05-20T07:02:38;101269.88;;;14.09;74.81
60345;BME280;46188;52.324;8.032;2023-05-20T07:05:03;101266.41;;;14.16;74.64
60345;BME280;46188;52.324;8.032;2023-05-20T07:07:29;101273.69;;;14.38;74.35
60345;BME280;46188;52.324;8.032;2023-05-20T07:09:54;101269.34;;;14.50;74.05
60345;BME280;46188;52.324;8.032;2023-05-20T07:12:19;101268.56;;;14.60;73.96
60345;BME280;46188;52.324;8.032;2023-05-20T07:14:45;101271.28;;;14.69;73.15
60345;BME280;46188;52.324;8.032;2023-05-20T07:17:10;101265.97;;;14.69;73.07
60345;BME280;46188;52.324;8.032;2023-05-20T07:19:35;101266.94;;;14.82;72.42
60345;BME280;46188;52.324;8.032;2023-05-20T07:22:00;101272.34;;;14.98;71.71
60345;BME280;46188;52.324;8.032;2023-05-20T07:24:26;101258.22;;;15.05;71.04
60345;BME280;46188;52.324;8.032;2023-05-20T07:26:51;101260.03;;;15.13;70.71
60345;BME280;46188;52.324;8.032;2023-05-20T07:29:16;101264.47;;;15.21;70.54
60345;BME280;46188;52.324;8.032;2023-05-20T07:31:42;101247.72;;;15.29;69.48
60345;BME280;46188;52.324;8.032;2023-05-20T07:34:07;101253.03;;;15.31;69.75
60345;BME280;46188;52.324;8.032;2023-05-20T07:36:32;101235.34;;;15.42;69.39
60345;BME280;46188;52.324;8.032;2023-05-20T07:38:57;101236.28;;;15.60;68.77
60345;BME280;46188;52.324;8.032;2023-05-20T07:41:23;101236.31;;;15.75;68.47
60345;BME280;46188;52.324;8.032;2023-05-20T07:43:48;101245.25;;;15.90;67.94
60345;BME280;46188;52.324;8.032;2023-05-20T07:46:13;101241.69;;;15.95;66.74
60345;BME280;46188;52.324;8.032;2023-05-20T07:48:40;101254.13;;;15.98;65.78
60345;BME280;46188;52.324;8.032;2023-05-20T07:51:05;101255.03;;;15.92;65.53
60345;BME280;46188;52.324;8.032;2023-05-20T07:53:32;101245.25;;;16.10;65.32
60345;BME280;46188;52.324;8.032;2023-05-20T07:55:57;101239.06;;;16.18;64.80
60345;BME280;46188;52.324;8.032;2023-05-20T07:58:23;101247.03;;;16.24;64.53
60345;BME280;46188;52.324;8.032;2023-05-20T08:00:48;101247.03;;;16.48;63.89
60345;BME280;46188;52.324;8.032;2023-05-20T08:03:13;101230.16;;;16.56;62.49
60345;BME280;46188;52.324;8.032;2023-05-20T08:05:40;101249.69;;;16.57;62.57
60345;BME280;46188;52.324;8.032;2023-05-20T08:08:05;101236.34;;;16.61;62.60
60345;BME280;46188;52.324;8.032;2023-05-20T08:10:31;101242.59;;;16.57;62.10
60345;BME280;46188;52.324;8.032;2023-05-20T08:12:56;101239.00;;;16.77;61.73
60345;BME280;46188;52.324;8.032;2023-05-20T08:15:21;101241.66;;;16.83;60.74
60345;BME280;46188;52.324;8.032;2023-05-20T08:17:46;101228.34;;;16.82;60.19
60345;BME280;46188;52.324;8.032;2023-05-20T08:20:12;101238.06;;;17.00;60.84
60345;BME280;46188;52.324;8.032;2023-05-20T08:22:38;101234.50;;;17.10;59.33
60345;BME280;46188;52.324;8.032;2023-05-20T08:25:05;101237.09;;;17.28;59.86
60345;BME280;46188;52.324;8.032;2023-05-20T08:27:31;101221.81;;;17.66;58.99
60345;BME280;46188;52.324;8.032;2023-05-20T08:29:57;101221.72;;;17.77;58.70
60345;BME280;46188;52.324;8.032;2023-05-20T08:32:22;101224.34;;;17.89;58.68
60345;BME280;46188;52.324;8.032;2023-05-20T08:34:47;101225.34;;;17.69;58.53
60345;BME280;46188;52.324;8.032;2023-05-20T08:37:13;101222.72;;;17.54;59.32
60345;BME280;46188;52.324;8.032;2023-05-20T08:39:38;101219.16;;;17.58;58.99
60345;BME280;46188;52.324;8.032;2023-05-20T08:42:04;101217.22;;;17.82;59.22
60345;BME280;46188;52.324;8.032;2023-05-20T08:44:31;101223.34;;;18.02;57.45
60345;BME280;46188;52.324;8.032;2023-05-20T08:46:57;101219.72;;;18.11;57.40
60345;BME280;46188;52.324;8.032;2023-05-20T08:49:22;101220.59;;;18.12;57.42
60345;BME280;46188;52.324;8.032;2023-05-20T08:51:48;101216.13;;;18.14;57.96
60345;BME280;46188;52.324;8.032;2023-05-20T08:54:13;101219.66;;;18.19;57.07
60345;BME280;46188;52.324;8.032;2023-05-20T08:56:40;101218.75;;;18.21;56.53
60345;BME280;46188;52.324;8.032;2023-05-20T08:59:07;101217.78;;;18.27;56.15
60345;BME280;46188;52.324;8.032;2023-05-20T09:01:36;101216.75;;;18.43;55.58
60345;BME280;46188;52.324;8.032;2023-05-20T09:04:05;101202.44;;;18.54;55.76
60345;BME280;46188;52.324;8.032;2023-05-20T09:06:41;101203.97;;;18.73;55.51
60345;BME280;46188;52.324;8.032;2023-05-20T09:09:06;101202.09;;;18.85;55.43
60345;BME280;46188;52.324;8.032;2023-05-20T09:11:32;101200.09;;;19.05;55.33
60345;BME280;46188;52.324;8.032;2023-05-20T09:13:57;101199.00;;;19.23;54.97
60345;BME280;46188;52.324;8.032;2023-05-20T09:16:22;101203.16;;;19.43;54.60
60345;BME280;46188;52.324;8.032;2023-05-20T09:18:47;101198.78;;;19.37;53.68
60345;BME280;46188;52.324;8.032;2023-05-20T09:21:13;101185.34;;;19.43;53.82
60345;BME280;46188;52.324;8.032;2023-05-20T09:23:39;101188.84;;;19.48;54.57
60345;BME280;46188;52.324;8.032;2023-05-20T09:26:04;101191.53;;;19.47;52.73
60345;BME280;46188;52.324;8.032;2023-05-20T09:28:29;101186.34;;;19.33;53.13
60345;BME280;46188;52.324;8.032;2023-05-20T09:30:58;101194.22;;;19.45;53.25
60345;BME280;46188;52.324;8.032;2023-05-20T09:33:27;101201.44;;;19.39;52.55
60345;BME280;46188;52.324;8.032;2023-05-20T09:36:01;101187.75;;;19.60;52.67
60345;BME280;46188;52.324;8.032;2023-05-20T09:38:27;101181.25;;;19.80;51.55
60345;BME280;46188;52.324;8.032;2023-05-20T09:41:00;101174.56;;;20.07;51.51
60345;BME280;46188;52.324;8.032;2023-05-20T09:43:26;101185.22;;;19.49;51.77
60345;BME280;46188;52.324;8.032;2023-05-20T09:45:52;101173.28;;;19.10;52.46
60345;BME280;46188;52.324;8.032;2023-05-20T09:48:19;101179.03;;;18.77;53.54
60345;BME280;46188;52.324;8.032;2023-05-20T09:50:45;101172.16;;;19.28;53.19
60345;BME280;46188;52.324;8.032;2023-05-20T09:53:11;101166.94;;;19.22;53.19
60345;BME280;46188;52.324;8.032;2023-05-20T09:55:37;101161.31;;;19.42;51.57
60345;BME280;46188;52.324;8.032;2023-05-20T09:58:02;101164.44;;;19.06;52.49
60345;BME280;46188;52.324;8.032;2023-05-20T10:00:27;101163.75;;;18.93;53.20
60345;BME280;46188;52.324;8.032;2023-05-20T10:02:53;101163.81;;;18.87;51.42
60345;BME280;46188;52.324;8.032;2023-05-20T10:05:24;101156.66;;;18.89;52.60
60345;BME280;46188;52.324;8.032;2023-05-20T10:11:14;101159.28;;;19.56;50.28
60345;BME280;46188;52.324;8.032;2023-05-20T10:14:08;101147.00;;;20.02;49.07
60345;BME280;46188;52.324;8.032;2023-05-20T10:16:49;101148.34;;;20.26;48.13
60345;BME280;46188;52.324;8.032;2023-05-20T10:19:27;101143.34;;;20.54;48.12
60345;BME280;46188;52.324;8.032;2023-05-20T10:22:04;101129.06;;;20.54;48.69
60345;BME280;46188;52.324;8.032;2023-05-20T10:24:31;101142.94;;;20.29;48.73
60345;BME280;46188;52.324;8.032;2023-05-20T10:26:57;101141.88;;;20.38;48.77
60345;BME280;46188;52.324;8.032;2023-05-20T10:29:24;101146.72;;;20.16;49.48
60345;BME280;46188;52.324;8.032;2023-05-20T10:31:51;101132.81;;;20.45;48.94
60345;BME280;46188;52.324;8.032;2023-05-20T10:34:18;101149.00;;;20.87;47.85
60345;BME280;46188;52.324;8.032;2023-05-20T10:36:57;101138.13;;;20.93;47.21
60345;BME280;46188;52.324;8.032;2023-05-20T10:39:30;101139.72;;;21.04;47.75
60345;BME280;46188;52.324;8.032;2023-05-20T10:42:10;101132.94;;;20.86;48.29
60345;BME280;46188;52.324;8.032;2023-05-20T10:44:42;101143.94;;;20.23;48.52
60345;BME280;46188;52.324;8.032;2023-05-20T10:47:08;101142.00;;;20.32;47.51
60345;BME280;46188;52.324;8.032;2023-05-20T10:49:34;101131.84;;;20.49;47.58
60345;BME280;46188;52.324;8.032;2023-05-20T10:52:00;101132.91;;;20.40;48.48
60345;BME280;46188;52.324;8.032;2023-05-20T10:54:26;101129.97;;;20.54;48.26
60345;BME280;46188;52.324;8.032;2023-05-20T10:56:52;101124.78;;;20.90;47.51
60345;BME280;46188;52.324;8.032;2023-05-20T10:59:18;101113.94;;;20.96;46.64
60345;BME280;46188;52.324;8.032;2023-05-20T11:01:45;101119.66;;;20.79;47.13
60345;BME280;46188;52.324;8.032;2023-05-20T11:04:12;101114.38;;;20.30;47.90
60345;BME280;46188;52.324;8.032;2023-05-20T11:06:37;101119.19;;;20.09;48.46
60345;BME280;46188;52.324;8.032;2023-05-20T11:09:03;101106.53;;;20.19;48.36
60345;BME280;46188;52.324;8.032;2023-05-20T11:11:31;101113.00;;;20.54;47.30
60345;BME280;46188;52.324;8.032;2023-05-20T11:13:57;101101.41;;;20.53;46.93
60345;BME280;46188;52.324;8.032;2023-05-20T11:16:22;101091.69;;;20.49;47.21
60345;BME280;46188;52.324;8.032;2023-05-20T11:18:48;101102.31;;;20.05;47.19
60345;BME280;46188;52.324;8.032;2023-05-20T11:21:14;101094.34;;;20.02;48.18
60345;BME280;46188;52.324;8.032;2023-05-20T11:23:40;101097.03;;;20.01;48.47
60345;BME280;46188;52.324;8.032;2023-05-20T11:26:06;101088.47;;;20.30;48.07
60345;BME280;46188;52.324;8.032;2023-05-20T11:28:34;101097.75;;;20.10;49.37
60345;BME280;46188;52.324;8.032;2023-05-20T11:30:59;101074.50;;;20.59;48.84
60345;BME280;46188;52.324;8.032;2023-05-20T11:33:25;101086.00;;;21.07;47.58
60345;BME280;46188;52.324;8.032;2023-05-20T11:35:52;101087.84;;;21.44;46.96
60345;BME280;46188;52.324;8.032;2023-05-20T11:38:18;101079.97;;;21.73;46.33
60345;BME280;46188;52.324;8.032;2023-05-20T11:40:51;101087.91;;;21.78;45.35
60345;BME280;46188;52.324;8.032;2023-05-20T11:43:17;101083.16;;;21.88;45.35
60345;BME280;46188;52.324;8.032;2023-05-20T11:45:44;101083.44;;;22.11;44.60
60345;BME280;46188;52.324;8.032;2023-05-20T11:48:10;101083.22;;;21.86;44.01
60345;BME280;46188;52.324;8.032;2023-05-20T11:50:38;101080.09;;;21.30;45.21
60345;BME280;46188;52.324;8.032;2023-05-20T11:53:07;101075.88;;;21.19;45.80
60345;BME280;46188;52.324;8.032;2023-05-20T11:55:33;101062.19;;;20.93;46.70
60345;BME280;46188;52.324;8.032;2023-05-20T11:57:59;101091.63;;;20.52;47.76
60345;BME280;46188;52.324;8.032;2023-05-20T12:00:25;101092.03;;;20.31;48.37
60345;BME280;46188;52.324;8.032;2023-05-20T12:02:50;101096.00;;;20.11;48.57
60345;BME280;46188;52.324;8.032;2023-05-20T12:05:16;101099.03;;;19.91;48.73
60345;BME280;46188;52.324;8.032;2023-05-20T12:07:42;101101.06;;;19.73;48.28
60345;BME280;46188;52.324;8.032;2023-05-20T12:10:08;101095.75;;;19.70;48.60
60345;BME280;46188;52.324;8.032;2023-05-20T12:12:33;101093.09;;;19.69;48.74
60345;BME280;46188;52.324;8.032;2023-05-20T12:15:00;101090.75;;;19.50;49.21
60345;BME280;46188;52.324;8.032;2023-05-20T12:17:26;101089.13;;;19.40;49.13
60345;BME280;46188;52.324;8.032;2023-05-20T12:19:51;101088.19;;;19.41;49.51
60345;BME280;46188;52.324;8.032;2023-05-20T12:22:16;101085.44;;;19.47;49.45
60345;BME280;46188;52.324;8.032;2023-05-20T12:24:41;101081.25;;;19.31;49.60
60345;BME280;46188;52.324;8.032;2023-05-20T12:27:07;101080.81;;;18.98;49.76
60345;BME280;46188;52.324;8.032;2023-05-20T12:29:32;101080.75;;;19.04;50.54
60345;BME280;46188;52.324;8.032;2023-05-20T12:31:57;101083.88;;;19.34;50.09
60345;BME280;46188;52.324;8.032;2023-05-20T12:34:23;101072.91;;;19.49;50.67
60345;BME280;46188;52.324;8.032;2023-05-20T12:36:48;101066.72;;;19.47;50.01
60345;BME280;46188;52.324;8.032;2023-05-20T12:39:13;101073.88;;;19.47;50.22
60345;BME280;46188;52.324;8.032;2023-05-20T12:41:42;101072.09;;;19.46;50.25
60345;BME280;46188;52.324;8.032;2023-05-20T12:44:07;101074.16;;;19.30;50.36
60345;BME280;46188;52.324;8.032;2023-05-20T12:46:33;101065.25;;;19.26;51.26
60345;BME280;46188;52.324;8.032;2023-05-20T12:48:58;101067.75;;;19.40;50.99